Portland, Oregon
Traffic Map
Current Weather Conditions
Portland, Oregon
Overcast
Overcast
37°
Feels Like: 32°
Wind Chill: 32° Ceiling: 1500
Heat Index: 37° Visibility: 10mi
Dew Point: 34° Wind: 6mph
Humidity: 89% Direction: 160° (SSE)
Pressure: 30.03in Gusts: 0mph
Raw Report DataKPDX 060553Z 16005KT 10SM BKN015 OVC095 03/01 A3003 RMK AO2 RAB0457E20 SLP168 P0000 60000 T00280011 10033 20028 56005
Traffic Incident Summary
Active as of:
Severity:
Category:
InformationThere was an issue retrieving the traffic information for this location. Please try a different location or try again shortly.
Advertisements
Track Severe Weather on mobile